Time;durP1;ratioP1;P1;durP2;ratioP2;P2;SDS_P1;SDS_P2;PMS_P1;PMS_P2;Temp;Humidity;BMP_temperature;BMP_pressure;BME280_temperature;BME280_humidity;BME280_pressure;Samples;Min_cycle;Max_cycle;Signal;HPM_P1;HPM_P2
2021/03/26 00:01:21;;;;;;;8.47;6.97;;;12.70;61.60;;;;;;5119302;27;20991;-78
2021/03/26 00:03:52;;;;;;;7.67;6.30;;;12.60;61.40;;;;;;5117239;27;20455;-77
2021/03/26 00:06:23;;;;;;;10.00;6.70;;;12.60;62.50;;;;;;5100156;27;20878;-78
2021/03/26 00:08:50;;;;;;;9.00;5.97;;;12.50;62.10;;;;;;5124173;27;20441;-78
2021/03/26 00:11:18;;;;;;;6.90;6.17;;;12.60;65.90;;;;;;5115863;28;20558;-77
2021/03/26 00:13:46;;;;;;;9.70;7.97;;;12.70;67.00;;;;;;5126644;28;20968;-78
2021/03/26 00:16:13;;;;;;;8.37;7.40;;;12.80;68.00;;;;;;5118148;28;20457;-77
2021/03/26 00:18:41;;;;;;;9.30;6.93;;;12.80;67.40;;;;;;5108806;28;20443;-77
2021/03/26 00:21:09;;;;;;;8.63;6.13;;;12.80;70.30;;;;;;5118855;27;20572;-74
2021/03/26 00:23:36;;;;;;;7.20;6.50;;;12.60;66.50;;;;;;5113977;28;20452;-77
2021/03/26 00:26:04;;;;;;;9.87;7.33;;;12.60;69.20;;;;;;5104831;28;20828;-77
2021/03/26 00:28:32;;;;;;;9.70;6.50;;;12.70;68.90;;;;;;5127171;28;20448;-77
2021/03/26 00:30:59;;;;;;;10.97;7.07;;;12.70;70.90;;;;;;5126114;28;20467;-78
2021/03/26 00:33:26;;;;;;;7.53;6.13;;;12.80;69.70;;;;;;5128685;27;20450;-77
2021/03/26 00:35:55;;;;;;;8.47;6.23;;;12.90;69.60;;;;;;5129427;27;20497;-78
2021/03/26 00:38:23;;;;;;;8.80;7.43;;;12.80;68.20;;;;;;5120866;27;20947;-77
2021/03/26 00:40:50;;;;;;;12.43;6.33;;;12.90;69.80;;;;;;5129904;27;20480;-77
2021/03/26 00:43:18;;;;;;;7.00;5.67;;;13.00;69.30;;;;;;5111277;27;20469;-77
2021/03/26 00:45:45;;;;;;;7.73;6.07;;;13.00;69.10;;;;;;5126559;27;20451;-77
2021/03/26 00:48:12;;;;;;;6.40;5.70;;;13.00;70.40;;;;;;5128850;27;20451;-77
2021/03/26 00:50:42;;;;;;;10.07;8.00;;;13.00;68.20;;;;;;5126068;27;20472;-78
2021/03/26 00:53:14;;;;;;;9.00;6.83;;;13.00;67.40;;;;;;5112783;27;20466;-78
2021/03/26 00:55:42;;;;;;;10.10;6.63;;;13.00;68.30;;;;;;5103424;27;20534;-76
2021/03/26 00:58:09;;;;;;;7.70;6.30;;;13.00;68.50;;;;;;5127674;27;20469;-78
2021/03/26 01:00:37;;;;;;;7.47;6.70;;;13.00;68.20;;;;;;5122885;27;20925;-78
2021/03/26 01:03:05;;;;;;;11.33;7.17;;;13.00;67.00;;;;;;5121095;27;20503;-77
2021/03/26 01:05:35;;;;;;;8.03;6.00;;;12.90;65.80;;;;;;5124644;27;20447;-77
2021/03/26 01:08:03;;;;;;;7.27;6.57;;;12.90;65.90;;;;;;5123583;27;20962;-77
2021/03/26 01:10:34;;;;;;;6.80;5.50;;;12.90;65.40;;;;;;5129172;27;20467;-78
2021/03/26 01:13:03;;;;;;;5.77;5.20;;;12.80;63.70;;;;;;5128423;27;20466;-77
2021/03/26 01:15:31;;;;;;;6.70;5.43;;;12.70;81.80;;;;;;5104653;27;20974;-78
2021/03/26 01:18:00;;;;;;;5.77;5.27;;;12.70;62.60;;;;;;5104026;27;20448;-77
2021/03/26 01:20:31;;;;;;;6.40;5.80;;;12.60;63.80;;;;;;5123436;27;20467;-77
2021/03/26 01:22:58;;;;;;;7.27;6.27;;;12.60;64.00;;;;;;5102193;27;20489;-78
2021/03/26 01:25:28;;;;;;;6.83;5.93;;;12.50;65.20;;;;;;5110139;27;21001;-78
2021/03/26 01:27:56;;;;;;;8.10;5.70;;;12.40;63.50;;;;;;5122887;27;20459;-78
2021/03/26 01:30:25;;;;;;;7.00;6.30;;;12.40;65.80;;;;;;5129685;27;20497;-78
2021/03/26 01:32:52;;;;;;;8.07;5.87;;;12.50;67.20;;;;;;5117656;27;20502;-78
2021/03/26 01:35:21;;;;;;;11.27;6.83;;;12.50;68.10;;;;;;5131204;27;20438;-78
2021/03/26 01:37:49;;;;;;;5.97;5.37;;;12.50;66.30;;;;;;5118121;27;20461;-77
2021/03/26 01:40:19;;;;;;;7.73;4.90;;;12.40;66.80;;;;;;5129093;27;20479;-78
2021/03/26 01:42:47;;;;;;;8.17;5.90;;;12.40;67.60;;;;;;5130047;27;20850;-78
2021/03/26 01:45:18;;;;;;;7.10;5.80;;;12.40;68.90;;;;;;5128428;27;20462;-78
2021/03/26 01:47:46;;;;;;;6.10;5.20;;;12.40;69.10;;;;;;5126076;27;20455;-78
2021/03/26 01:50:15;;;;;;;8.37;5.80;;;12.40;70.00;;;;;;5113392;27;21025;-78
2021/03/26 01:52:43;;;;;;;7.20;5.50;;;12.40;68.00;;;;;;5128381;27;20448;-78
2021/03/26 01:55:18;;;;;;;6.17;5.57;;;12.40;68.90;;;;;;5125778;27;20508;-78
2021/03/26 01:57:45;;;;;;;8.33;5.47;;;12.30;68.30;;;;;;5117863;27;20497;-78
2021/03/26 02:00:32;;;;;;;6.33;5.70;;;12.30;71.50;;;;;;5121533;27;20488;-77
2021/03/26 02:03:05;;;;;;;7.47;5.60;;;11.90;68.40;;;;;;5128885;27;20478;-77
2021/03/26 02:05:34;;;;;;;7.77;6.63;;;12.00;70.90;;;;;;5111801;27;20441;-77
2021/03/26 02:08:01;;;;;;;7.00;5.43;;;12.00;71.00;;;;;;5127037;27;20511;-77
2021/03/26 02:10:29;;;;;;;8.00;6.10;;;12.10;73.30;;;;;;5120964;27;20463;-77
2021/03/26 02:13:02;;;;;;;8.30;5.90;;;12.20;72.20;;;;;;5130220;27;20448;-77
2021/03/26 02:15:37;;;;;;;8.47;6.33;;;12.20;70.80;;;;;;5128851;27;20451;-74
2021/03/26 02:18:06;;;;;;;8.40;6.37;;;12.20;74.60;;;;;;5118441;27;20467;-78
2021/03/26 02:20:42;;;;;;;8.13;6.30;;;12.20;73.00;;;;;;5128935;27;20478;-77
2021/03/26 02:23:12;;;;;;;8.63;6.67;;;12.20;74.10;;;;;;5128596;27;20441;-78
2021/03/26 02:25:41;;;;;;;12.13;7.20;;;11.80;70.40;;;;;;5119589;27;20868;-78
2021/03/26 02:28:09;;;;;;;6.97;6.27;;;11.70;73.90;;;;;;5109972;27;20452;-77
2021/03/26 02:30:51;;;;;;;7.50;6.67;;;11.90;78.10;;;;;;5107138;27;20459;-77
2021/03/26 02:33:20;;;;;;;7.77;6.87;;;12.00;77.60;;;;;;5123719;27;20449;-77
2021/03/26 02:35:51;;;;;;;7.17;6.27;;;12.00;78.10;;;;;;5118129;27;20974;-77
2021/03/26 02:38:24;;;;;;;10.57;7.30;;;12.00;79.10;;;;;;5133515;27;20441;-77
2021/03/26 02:40:57;;;;;;;11.37;7.23;;;12.00;77.50;;;;;;5100003;27;20492;-77
2021/03/26 02:43:33;;;;;;;10.53;7.30;;;12.00;79.50;;;;;;5121296;27;20464;-77
2021/03/26 02:46:10;;;;;;;8.43;7.17;;;12.00;78.80;;;;;;5129060;27;20487;-76
2021/03/26 02:48:45;;;;;;;12.53;7.23;;;12.00;80.30;;;;;;5108543;27;20460;-77
2021/03/26 02:51:20;;;;;;;8.33;6.80;;;11.90;79.30;;;;;;5128505;27;21109;-77
2021/03/26 02:54:05;;;;;;;11.67;8.00;;;11.80;80.00;;;;;;5119118;27;20528;-77
2021/03/26 02:56:39;;;;;;;8.50;7.60;;;11.50;81.90;;;;;;5113889;27;20568;-77
2021/03/26 02:59:11;;;;;;;8.40;6.67;;;11.90;82.40;;;;;;5124238;27;20451;-77
2021/03/26 03:01:42;;;;;;;9.00;7.10;;;12.00;82.90;;;;;;5127677;27;20477;-76
2021/03/26 03:04:15;;;;;;;8.70;7.13;;;12.10;83.30;;;;;;5117699;27;20539;-77
2021/03/26 03:06:47;;;;;;;12.27;7.57;;;12.10;82.80;;;;;;5123617;27;20823;-74
2021/03/26 03:09:16;;;;;;;10.53;7.50;;;12.10;82.40;;;;;;5102781;27;20452;-77
2021/03/26 03:11:47;;;;;;;9.53;8.20;;;12.00;94.90;;;;;;5107560;27;21020;-75
2021/03/26 03:14:20;;;;;;;6.90;6.20;;;12.10;81.90;;;;;;5123071;27;20958;-78
2021/03/26 03:16:53;;;;;;;10.87;7.93;;;12.10;81.90;;;;;;5123262;27;20545;-78
2021/03/26 03:19:33;;;;;;;7.70;6.80;;;12.10;81.70;;;;;;5113410;27;20549;-78
2021/03/26 03:22:03;;;;;;;9.73;7.33;;;12.00;79.60;;;;;;5100895;27;20486;-78
2021/03/26 03:24:36;;;;;;;10.60;7.20;;;11.70;81.50;;;;;;5125714;27;20453;-78
2021/03/26 03:27:22;;;;;;;8.53;7.20;;;11.80;82.80;;;;;;5117580;27;21019;-78
2021/03/26 03:29:56;;;;;;;11.23;7.07;;;11.90;83.40;;;;;;5102108;27;20467;-78
2021/03/26 03:32:34;;;;;;;9.30;7.00;;;12.00;83.20;;;;;;5104772;27;20452;-78
2021/03/26 03:35:11;;;;;;;8.20;7.07;;;12.10;82.90;;;;;;5128387;27;20455;-78
2021/03/26 03:37:44;;;;;;;9.10;6.53;;;11.90;78.20;;;;;;5124248;27;20526;-78
2021/03/26 03:40:31;;;;;;;10.50;7.23;;;11.80;79.00;;;;;;5127525;27;20518;-78
2021/03/26 03:43:05;;;;;;;7.20;6.50;;;11.80;80.60;;;;;;5121616;27;20472;-77
2021/03/26 03:45:40;;;;;;;8.87;6.83;;;11.70;82.40;;;;;;5125797;27;20460;-78
2021/03/26 03:48:13;;;;;;;7.77;6.53;;;11.70;80.80;;;;;;5117481;27;20537;-77
2021/03/26 03:50:44;;;;;;;8.40;6.47;;;11.70;81.50;;;;;;5108537;27;20467;-77
2021/03/26 03:53:16;;;;;;;9.60;6.10;;;11.70;82.00;;;;;;5127005;27;20542;-78
2021/03/26 03:55:52;;;;;;;9.87;6.60;;;11.60;83.20;;;;;;5128245;27;20444;-77
2021/03/26 03:58:25;;;;;;;8.50;6.43;;;11.60;83.30;;;;;;5114479;27;20534;-77
2021/03/26 04:00:59;;;;;;;9.10;8.10;;;11.60;84.50;;;;;;5125089;27;20525;-78
2021/03/26 04:03:30;;;;;;;9.67;6.60;;;11.60;84.90;;;;;;5137372;27;20440;-77
2021/03/26 04:06:03;;;;;;;12.10;6.73;;;11.70;87.30;;;;;;5122531;27;20881;-77
2021/03/26 04:08:33;;;;;;;6.87;6.20;;;11.70;87.40;;;;;;5125826;27;20479;-77
2021/03/26 04:11:10;;;;;;;8.70;6.97;;;11.70;88.40;;;;;;5106472;27;20468;-77
2021/03/26 04:13:42;;;;;;;7.83;6.80;;;11.70;87.60;;;;;;5126845;27;20449;-78
2021/03/26 04:16:13;;;;;;;6.80;6.20;;;11.60;89.40;;;;;;5120407;28;20455;-78
2021/03/26 04:18:46;;;;;;;8.23;7.13;;;11.60;90.30;;;;;;5119954;28;20456;-78
2021/03/26 04:21:18;;;;;;;10.67;6.77;;;11.60;91.30;;;;;;5116865;28;20466;-78
2021/03/26 04:23:54;;;;;;;9.53;7.00;;;11.60;91.10;;;;;;5126620;28;20443;-77
2021/03/26 04:26:26;;;;;;;11.47;7.17;;;11.60;99.90;;;;;;5103512;28;20467;-78
2021/03/26 04:28:59;;;;;;;10.20;7.60;;;11.60;92.70;;;;;;5103506;28;20458;-78
2021/03/26 04:31:34;;;;;;;10.40;7.33;;;11.70;93.60;;;;;;5116550;28;20858;-78
2021/03/26 04:34:02;;;;;;;8.00;6.63;;;11.70;93.50;;;;;;5122308;28;20496;-77
2021/03/26 04:36:39;;;;;;;7.97;7.17;;;11.70;94.50;;;;;;5102694;27;20447;-78
2021/03/26 04:39:14;;;;;;;8.87;6.90;;;11.60;95.00;;;;;;5121739;28;20484;-78
2021/03/26 04:41:46;;;;;;;7.53;6.30;;;11.60;96.60;;;;;;5105208;28;20806;-78
2021/03/26 04:44:23;;;;;;;7.30;6.60;;;11.60;95.50;;;;;;5125438;28;20513;-78
2021/03/26 04:46:58;;;;;;;7.53;6.63;;;11.60;96.10;;;;;;5117394;28;21055;-78
2021/03/26 04:49:30;;;;;;;7.77;6.43;;;11.60;96.40;;;;;;5121685;28;21365;-77
2021/03/26 04:52:02;;;;;;;8.53;7.03;;;11.60;96.90;;;;;;5101979;28;20449;-78
2021/03/26 04:54:33;;;;;;;10.50;6.83;;;11.60;96.90;;;;;;5137605;27;20497;-77
2021/03/26 04:57:05;;;;;;;7.27;5.97;;;11.60;97.20;;;;;;5126766;28;20463;-77
2021/03/26 04:59:38;;;;;;;11.80;7.90;;;11.60;96.90;;;;;;5122431;27;20488;-77
2021/03/26 05:02:10;;;;;;;10.03;6.13;;;11.70;97.10;;;;;;5123796;27;20481;-77
2021/03/26 05:04:41;;;;;;;8.53;7.33;;;11.70;96.70;;;;;;5103425;28;20483;-77
2021/03/26 05:07:13;;;;;;;10.27;7.37;;;11.70;96.90;;;;;;5102016;28;20472;-78
2021/03/26 05:09:45;;;;;;;12.63;7.60;;;11.70;96.90;;;;;;5118929;28;20479;-78
2021/03/26 05:12:18;;;;;;;7.83;6.80;;;11.60;96.60;;;;;;5121533;27;20943;-77
2021/03/26 05:14:52;;;;;;;10.70;6.70;;;11.50;96.90;;;;;;5126191;28;20452;-78
2021/03/26 05:17:26;;;;;;;7.30;6.17;;;11.60;97.10;;;;;;5096910;28;20508;-77
2021/03/26 05:20:01;;;;;;;9.13;6.57;;;11.60;96.70;;;;;;5123153;27;20467;-77
2021/03/26 05:22:51;;;;;;;8.47;6.60;;;11.70;95.30;;;;;;5121268;27;20579;-77
2021/03/26 05:25:26;;;;;;;8.07;6.47;;;11.60;96.20;;;;;;5120347;27;20461;-77
2021/03/26 05:27:55;;;;;;;9.33;6.63;;;11.60;96.40;;;;;;5138470;27;20427;-77
2021/03/26 05:30:25;;;;;;;6.63;5.83;;;11.50;96.40;;;;;;5128531;27;20478;-77
2021/03/26 05:33:15;;;;;;;5.97;5.33;;;11.50;96.80;;;;;;5106819;27;20551;-77
2021/03/26 05:35:50;;;;;;;6.23;5.60;;;11.60;96.70;;;;;;5128037;27;20444;-76
2021/03/26 05:38:20;;;;;;;11.90;7.67;;;11.60;95.90;;;;;;5115573;27;20466;-78
2021/03/26 05:41:24;;;;;;;9.83;8.73;;;11.60;96.30;;;;;;5125644;27;20459;-78
2021/03/26 05:44:15;;;;;;;7.63;6.07;;;11.60;94.90;;;;;;5096985;27;20533;-77
2021/03/26 05:46:59;;;;;;;10.60;7.07;;;11.70;95.00;;;;;;5104853;27;20483;-77
2021/03/26 05:49:38;;;;;;;7.67;6.47;;;11.60;94.50;;;;;;5104617;27;20600;-78
2021/03/26 05:52:36;;;;;;;6.80;5.43;;;11.60;95.10;;;;;;5121530;27;20440;-76
2021/03/26 05:55:21;;;;;;;10.80;6.27;;;11.50;94.90;;;;;;5111457;27;20535;-77
2021/03/26 05:57:57;;;;;;;9.70;6.50;;;11.50;95.30;;;;;;5109098;27;20468;-78
2021/03/26 06:00:47;;;;;;;6.53;5.87;;;11.50;94.90;;;;;;5120975;27;20475;-77
2021/03/26 06:04:19;;;;;;;6.77;6.07;;;11.50;94.80;;;;;;5117849;27;20480;-78
2021/03/26 06:07:22;;;;;;;7.43;5.70;;;11.50;96.30;;;;;;5115265;27;20451;-78
2021/03/26 06:10:16;;;;;;;7.57;6.57;;;11.50;96.60;;;;;;5123163;27;20528;-79
2021/03/26 06:13:34;;;;;;;9.83;7.13;;;11.50;96.70;;;;;;5121099;27;20506;-79
2021/03/26 06:16:35;;;;;;;6.10;5.50;;;11.30;96.70;;;;;;5126224;27;21112;-79
2021/03/26 06:19:28;;;;;;;8.20;7.40;;;11.40;96.60;;;;;;5117024;27;20463;-79
2021/03/26 06:22:19;;;;;;;9.50;6.10;;;11.50;96.60;;;;;;5129545;27;20926;-80
2021/03/26 06:25:20;;;;;;;7.43;6.67;;;11.50;96.80;;;;;;5106207;27;20486;-79
2021/03/26 06:27:59;;;;;;;8.80;7.20;;;11.50;97.40;;;;;;5122141;27;21045;-80
2021/03/26 06:30:33;;;;;;;8.30;6.83;;;11.50;99.90;;;;;;5120877;27;21002;-80
2021/03/26 06:33:34;;;;;;;9.63;7.47;;;11.50;99.90;;;;;;5117265;27;20516;-79
2021/03/26 06:36:21;;;;;;;11.03;8.93;;;11.50;99.90;;;;;;5099189;27;20514;-79
2021/03/26 06:39:16;;;;;;;7.67;6.97;;;11.50;99.90;;;;;;5105016;27;20481;-79
2021/03/26 06:41:56;;;;;;;12.50;8.90;;;11.60;99.90;;;;;;5118343;27;20465;-79
2021/03/26 06:45:05;;;;;;;13.67;8.10;;;11.40;99.90;;;;;;5122744;27;20468;-79
2021/03/26 06:47:48;;;;;;;10.37;8.63;;;11.80;99.90;;;;;;5121558;27;20459;-79
2021/03/26 06:50:31;;;;;;;11.40;9.37;;;11.90;99.90;;;;;;5114711;27;21418;-80
2021/03/26 06:53:10;;;;;;;11.70;8.87;;;11.90;99.90;;;;;;5124388;27;20445;-81
2021/03/26 06:55:48;;;;;;;8.40;7.60;;;11.90;99.90;;;;;;5125501;27;20436;-81
2021/03/26 06:58:46;;;;;;;11.40;8.20;;;12.00;99.90;;;;;;5106581;27;20452;-81
2021/03/26 07:01:26;;;;;;;12.53;8.37;;;12.10;99.90;;;;;;5096066;27;20464;-78
2021/03/26 07:04:30;;;;;;;10.07;8.07;;;12.00;99.20;;;;;;5120609;27;20457;-78
2021/03/26 07:07:23;;;;;;;15.03;9.00;;;12.10;99.90;;;;;;5122712;27;21225;-80
2021/03/26 07:10:28;;;;;;;10.97;8.00;;;12.00;99.90;;;;;;5126165;27;20471;-81
2021/03/26 07:13:43;;;;;;;13.13;9.10;;;12.00;99.90;;;;;;5104943;27;20555;-81
2021/03/26 07:16:49;;;;;;;10.80;8.40;;;12.20;99.90;;;;;;5017054;28;20468;-81
2021/03/26 07:19:26;;;;;;;14.73;7.90;;;12.20;99.90;;;;;;5006062;28;20518;-79
2021/03/26 07:22:19;;;;;;;10.80;7.87;;;12.20;99.90;;;;;;5109882;27;20564;-79
2021/03/26 07:25:22;;;;;;;9.77;8.30;;;12.30;99.90;;;;;;5107299;27;20579;-80
2021/03/26 07:28:01;;;;;;;12.10;9.80;;;12.40;99.90;;;;;;5034671;28;20475;-78
2021/03/26 07:30:41;;;;;;;10.77;9.17;;;12.20;99.90;;;;;;5102523;27;20477;-79
2021/03/26 07:33:20;;;;;;;10.27;8.60;;;12.20;99.70;;;;;;5116739;27;21023;-80
2021/03/26 07:36:12;;;;;;;15.20;9.77;;;12.30;99.90;;;;;;5123728;27;20439;-81
2021/03/26 07:38:54;;;;;;;11.37;8.80;;;12.50;99.90;;;;;;5113571;27;20456;-80
2021/03/26 07:41:49;;;;;;;10.67;8.93;;;12.70;99.90;;;;;;5115851;27;20522;-79
2021/03/26 07:44:27;;;;;;;15.53;9.20;;;12.80;99.90;;;;;;5103003;27;20460;-81
2021/03/26 07:47:12;;;;;;;11.87;8.00;;;13.00;99.90;;;;;;5127430;27;20457;-79
2021/03/26 07:49:59;;;;;;;9.73;8.37;;;12.90;99.90;;;;;;5104486;27;20915;-79
2021/03/26 07:52:36;;;;;;;10.67;7.97;;;13.10;99.90;;;;;;5127364;27;20523;-79
2021/03/26 07:55:20;;;;;;;9.53;7.60;;;13.30;99.90;;;;;;5122046;27;20456;-79
2021/03/26 07:58:43;;;;;;;9.40;8.37;;;13.60;99.90;;;;;;5102723;27;20479;-80
2021/03/26 08:01:31;;;;;;;11.70;8.07;;;13.80;99.80;;;;;;5117688;27;20529;-79
2021/03/26 08:04:10;;;;;;;11.03;8.33;;;14.00;99.80;;;;;;5122639;27;20495;-80
2021/03/26 08:07:07;;;;;;;12.13;8.10;;;14.30;99.90;;;;;;5118667;27;20522;-78
2021/03/26 08:09:47;;;;;;;9.63;8.20;;;14.70;99.90;;;;;;5120270;27;20465;-79
2021/03/26 08:12:22;;;;;;;8.97;8.07;;;14.90;99.90;;;;;;5119677;27;21068;-79
2021/03/26 08:15:24;;;;;;;11.57;7.90;;;15.10;99.90;;;;;;5104063;28;20465;-79
2021/03/26 08:18:05;;;;;;;8.70;7.80;;;15.20;99.30;;;;;;5086373;27;20468;-78
2021/03/26 08:20:40;;;;;;;11.30;8.23;;;15.50;99.90;;;;;;5119917;27;20471;-81
2021/03/26 08:23:30;;;;;;;9.43;6.93;;;15.60;99.90;;;;;;5128514;27;20466;-80
2021/03/26 08:26:05;;;;;;;11.50;8.63;;;15.80;99.70;;;;;;5120701;27;20469;-79
2021/03/26 08:29:01;;;;;;;11.80;8.30;;;15.90;98.90;;;;;;5115805;27;20469;-80
2021/03/26 08:32:01;;;;;;;8.40;7.13;;;16.00;99.60;;;;;;5122638;27;20439;-81
2021/03/26 08:34:47;;;;;;;10.57;6.80;;;16.00;98.80;;;;;;5111102;27;20479;-80
2021/03/26 08:37:22;;;;;;;8.40;6.73;;;16.00;98.90;;;;;;5103336;28;20445;-80
2021/03/26 08:39:54;;;;;;;12.23;7.30;;;16.10;99.10;;;;;;5109816;28;20462;-82
2021/03/26 08:42:25;;;;;;;10.30;6.70;;;15.90;97.70;;;;;;5127235;27;20510;-78
2021/03/26 08:44:58;;;;;;;8.73;7.67;;;15.80;97.50;;;;;;5088133;27;21044;-78
2021/03/26 08:47:31;;;;;;;7.83;6.93;;;15.80;98.60;;;;;;5125033;28;20498;-78
2021/03/26 08:50:17;;;;;;;11.03;7.90;;;15.90;98.30;;;;;;5122434;27;20498;-79
2021/03/26 08:53:29;;;;;;;9.17;7.07;;;16.10;98.80;;;;;;5117666;27;20554;-79
2021/03/26 08:56:18;;;;;;;10.10;7.67;;;16.20;99.00;;;;;;5076786;27;20485;-80
2021/03/26 08:59:12;;;;;;;10.63;7.47;;;16.00;96.10;;;;;;5123964;27;21045;-80
2021/03/26 09:01:54;;;;;;;10.13;8.93;;;16.00;95.90;;;;;;5119265;27;20448;-81
2021/03/26 09:04:47;;;;;;;10.63;8.00;;;16.10;94.70;;;;;;5111718;27;20554;-80
2021/03/26 09:07:24;;;;;;;10.50;8.20;;;16.10;96.40;;;;;;5128084;27;20459;-80
2021/03/26 09:10:16;;;;;;;13.37;8.57;;;16.00;94.10;;;;;;5112480;27;20516;-81
2021/03/26 09:12:58;;;;;;;10.10;7.57;;;16.00;94.40;;;;;;5114294;27;20446;-81
2021/03/26 09:15:42;;;;;;;10.33;8.23;;;16.10;95.60;;;;;;5121138;27;20739;-80
2021/03/26 09:18:24;;;;;;;12.90;8.87;;;16.00;94.30;;;;;;5125936;27;20444;-81
2021/03/26 09:21:04;;;;;;;9.70;8.10;;;15.90;94.10;;;;;;5109267;27;20480;-82
2021/03/26 09:23:57;;;;;;;12.07;7.97;;;16.20;97.50;;;;;;5111676;27;20483;-80
2021/03/26 09:26:43;;;;;;;11.43;8.27;;;16.40;99.10;;;;;;5121914;27;20482;-81
2021/03/26 09:29:16;;;;;;;8.33;7.63;;;16.40;99.10;;;;;;5109949;27;21011;-81
2021/03/26 09:31:48;;;;;;;8.93;7.57;;;16.30;97.70;;;;;;5123110;27;20444;-79
2021/03/26 09:34:27;;;;;;;10.70;8.63;;;16.30;95.30;;;;;;5120975;27;20443;-79
2021/03/26 09:37:14;;;;;;;10.63;9.20;;;16.40;96.40;;;;;;5125350;27;20455;-79
2021/03/26 09:39:45;;;;;;;13.53;8.67;;;16.50;97.20;;;;;;5107228;27;20476;-80
2021/03/26 09:42:29;;;;;;;11.67;8.80;;;16.70;99.50;;;;;;5127516;27;20456;-79
2021/03/26 09:45:07;;;;;;;8.80;7.90;;;16.80;97.30;;;;;;5117170;27;20571;-79
2021/03/26 09:47:41;;;;;;;10.10;7.50;;;16.90;98.60;;;;;;5122503;27;20452;-79
2021/03/26 09:50:29;;;;;;;11.37;8.60;;;16.80;95.70;;;;;;5125490;27;20496;-82
2021/03/26 09:52:57;;;;;;;11.30;7.87;;;16.50;94.40;;;;;;5125786;27;20674;-78
2021/03/26 09:55:32;;;;;;;8.50;7.17;;;16.50;93.10;;;;;;5124848;27;20461;-80
2021/03/26 09:58:04;;;;;;;9.17;7.70;;;16.50;92.80;;;;;;5124618;27;20534;-78
2021/03/26 10:00:43;;;;;;;9.57;7.57;;;16.60;92.80;;;;;;5125360;27;20480;-78
2021/03/26 10:03:30;;;;;;;10.10;7.00;;;16.60;92.20;;;;;;5125863;27;21063;-79
2021/03/26 10:06:02;;;;;;;8.40;7.50;;;16.60;92.10;;;;;;5106901;27;20453;-80
2021/03/26 10:08:48;;;;;;;7.80;6.43;;;16.60;93.00;;;;;;5120254;27;20459;-77
2021/03/26 10:11:20;;;;;;;7.83;7.03;;;16.50;92.10;;;;;;5124937;27;21003;-80
2021/03/26 10:13:52;;;;;;;8.97;6.87;;;16.60;92.70;;;;;;5128192;27;20457;-76
2021/03/26 10:16:25;;;;;;;7.03;5.63;;;16.80;93.20;;;;;;5128605;27;20540;-73
2021/03/26 10:18:59;;;;;;;10.17;6.90;;;16.80;92.90;;;;;;5116990;27;20561;-76
2021/03/26 10:21:30;;;;;;;9.00;6.80;;;17.00;93.90;;;;;;5120134;27;20547;-73
2021/03/26 10:24:09;;;;;;;9.40;6.90;;;16.90;92.30;;;;;;5118652;27;20568;-76
2021/03/26 10:26:44;;;;;;;8.43;6.80;;;17.00;92.40;;;;;;5121650;27;20451;-75
2021/03/26 10:29:40;;;;;;;8.07;7.27;;;16.90;91.00;;;;;;5119160;27;20517;-75
2021/03/26 10:32:17;;;;;;;8.03;6.10;;;16.80;90.50;;;;;;5123700;27;21215;-75
2021/03/26 10:34:46;;;;;;;7.63;6.00;;;16.70;89.30;;;;;;5118659;27;20455;-74
2021/03/26 10:37:35;;;;;;;10.23;6.70;;;16.90;91.30;;;;;;5127897;27;20457;-75
2021/03/26 10:40:06;;;;;;;11.90;6.73;;;16.90;90.00;;;;;;5121995;27;20475;-75
2021/03/26 10:42:40;;;;;;;10.47;6.83;;;16.90;90.20;;;;;;5125231;27;20479;-77
2021/03/26 10:45:26;;;;;;;8.27;6.00;;;17.00;91.30;;;;;;5120270;27;20469;-77
2021/03/26 10:48:00;;;;;;;7.33;5.97;;;17.20;92.50;;;;;;5119592;27;20471;-75
2021/03/26 10:50:40;;;;;;;8.93;6.30;;;17.50;95.10;;;;;;5111491;27;21284;-76
2021/03/26 10:53:10;;;;;;;6.27;5.20;;;17.70;95.00;;;;;;5120017;27;20930;-80
2021/03/26 10:55:48;;;;;;;6.53;5.67;;;17.80;93.30;;;;;;5119604;27;20543;-81
2021/03/26 10:58:24;;;;;;;8.23;5.20;;;17.70;92.40;;;;;;5102911;27;20459;-82
2021/03/26 11:01:02;;;;;;;7.00;5.73;;;17.70;92.40;;;;;;5125499;27;20473;-82
2021/03/26 11:03:36;;;;;;;7.20;6.00;;;17.70;91.20;;;;;;5103713;27;20477;-83
2021/03/26 11:06:15;;;;;;;6.90;6.20;;;17.70;91.90;;;;;;5125143;27;20485;-82
2021/03/26 11:08:50;;;;;;;8.43;5.10;;;17.70;92.80;;;;;;5119682;27;20449;-82
2021/03/26 11:11:34;;;;;;;5.00;4.37;;;17.60;90.60;;;;;;5127408;27;20482;-83
2021/03/26 11:14:41;;;;;;;6.20;5.17;;;17.70;90.10;;;;;;5121024;27;20457;-83
2021/03/26 11:17:29;;;;;;;8.73;6.20;;;17.90;91.80;;;;;;5103331;27;20460;-81
2021/03/26 11:20:12;;;;;;;6.83;6.07;;;18.10;93.00;;;;;;5107539;27;20504;-82
2021/03/26 11:22:50;;;;;;;8.00;6.40;;;18.20;94.80;;;;;;5107569;27;20528;-81
2021/03/26 11:25:24;;;;;;;9.00;7.70;;;18.30;95.70;;;;;;5109899;27;20446;-81
2021/03/26 11:27:54;;;;;;;9.30;7.10;;;18.40;96.30;;;;;;5126129;27;20455;-80
2021/03/26 11:30:36;;;;;;;7.40;6.70;;;18.40;95.50;;;;;;5106056;27;21076;-83
2021/03/26 11:33:15;;;;;;;9.07;7.27;;;18.40;95.10;;;;;;5125097;27;20460;-84
2021/03/26 11:35:46;;;;;;;10.30;7.47;;;18.30;93.10;;;;;;5104736;27;20473;-83
2021/03/26 11:38:18;;;;;;;7.93;6.77;;;18.00;92.40;;;;;;5123658;27;20450;-83
2021/03/26 11:40:54;;;;;;;6.83;6.13;;;18.10;92.80;;;;;;5108296;27;20475;-84
2021/03/26 11:43:24;;;;;;;11.10;7.40;;;18.20;95.40;;;;;;5121638;27;20517;-83
2021/03/26 11:46:01;;;;;;;9.25;6.57;;;18.10;93.80;;;;;;5125834;27;20425;-81
2021/03/26 11:48:44;;;;;;;9.32;7.38;;;18.30;99.00;;;;;;5126466;27;21056;-80
2021/03/26 11:51:22;;;;;;;9.07;7.20;;;18.50;97.60;;;;;;5124384;27;20271;-81
2021/03/26 11:53:59;;;;;;;7.97;6.63;;;18.60;99.70;;;;;;5125992;27;20471;-80
2021/03/26 11:56:39;;;;;;;13.50;7.10;;;18.70;99.00;;;;;;5125003;27;20447;-84
2021/03/26 11:59:40;;;;;;;11.00;7.60;;;18.40;95.50;;;;;;5127715;27;20462;-84
2021/03/26 12:02:29;;;;;;;10.10;7.40;;;18.20;91.80;;;;;;5129381;27;20960;-83
2021/03/26 12:05:05;;;;;;;7.27;6.57;;;18.00;91.70;;;;;;5127027;27;20955;-84
2021/03/26 12:08:00;;;;;;;11.70;5.97;;;18.20;92.50;;;;;;5128596;27;20441;-84
2021/03/26 12:10:32;;;;;;;7.20;6.50;;;18.40;94.70;;;;;;5101125;28;20467;-84
2021/03/26 12:13:07;;;;;;;8.20;7.40;;;18.60;95.60;;;;;;5111428;28;20436;-83
2021/03/26 12:15:39;;;;;;;8.93;6.80;;;18.70;96.10;;;;;;5109340;28;20448;-83
2021/03/26 12:18:17;;;;;;;7.00;6.30;;;18.80;97.40;;;;;;5126021;27;20451;-83
2021/03/26 12:20:46;;;;;;;7.20;6.50;;;18.90;97.20;;;;;;5107805;28;20518;-85
2021/03/26 12:23:34;;;;;;;6.93;5.23;;;18.90;96.70;;;;;;5130548;28;20479;-86
2021/03/26 12:26:08;;;;;;;6.30;5.70;;;18.90;96.20;;;;;;5103423;28;20455;-86
2021/03/26 12:28:56;;;;;;;4.40;3.90;;;19.00;96.40;;;;;;5127819;28;20444;-85
2021/03/26 12:31:28;;;;;;;6.10;4.43;;;18.90;95.20;;;;;;5111335;27;20471;-85
2021/03/26 12:34:02;;;;;;;6.93;4.70;;;18.90;94.60;;;;;;5127544;27;20547;-85
2021/03/26 12:36:35;;;;;;;5.20;4.47;;;18.90;95.10;;;;;;5123660;27;20451;-85
2021/03/26 12:39:09;;;;;;;6.73;3.70;;;18.90;93.50;;;;;;5125319;27;20468;-81
2021/03/26 12:41:50;;;;;;;4.53;3.73;;;18.90;94.70;;;;;;5124514;27;20527;-83
2021/03/26 12:44:23;;;;;;;5.80;4.10;;;19.00;94.90;;;;;;5101956;27;20483;-81
2021/03/26 12:47:06;;;;;;;6.50;5.20;;;19.10;96.20;;;;;;5109580;27;20466;-82
2021/03/26 12:49:39;;;;;;;4.27;3.53;;;19.20;95.50;;;;;;5107000;27;20497;-84
2021/03/26 12:52:23;;;;;;;6.13;3.80;;;19.30;96.10;;;;;;5127440;27;20455;-83
2021/03/26 12:55:06;;;;;;;3.30;2.97;;;19.50;97.80;;;;;;5126072;27;20461;-83
2021/03/26 12:57:40;;;;;;;3.47;2.73;;;19.30;96.10;;;;;;5127383;27;20440;-83
2021/03/26 13:00:10;;;;;;;5.03;2.97;;;19.40;95.30;;;;;;5124818;27;20990;-82
2021/03/26 13:02:41;;;;;;;4.90;2.60;;;19.50;93.90;;;;;;5130724;27;20435;-82
2021/03/26 13:05:16;;;;;;;4.30;2.80;;;19.40;93.30;;;;;;5121670;27;20448;-81
2021/03/26 13:07:47;;;;;;;3.77;3.47;;;19.40;91.30;;;;;;5129776;27;20461;-82
2021/03/26 13:10:36;;;;;;;10.13;3.60;;;19.30;91.30;;;;;;5112795;27;20562;-81
2021/03/26 13:13:33;;;;;;;4.73;3.93;;;19.30;89.20;;;;;;5130429;27;20458;-82
2021/03/26 13:16:20;;;;;;;5.63;3.17;;;19.30;90.00;;;;;;5134678;27;20572;-81
2021/03/26 13:18:51;;;;;;;3.60;3.20;;;19.30;90.40;;;;;;5131090;27;21158;-82
2021/03/26 13:21:40;;;;;;;3.80;3.30;;;19.20;89.10;;;;;;5124811;27;20990;-80
2021/03/26 13:24:23;;;;;;;4.83;2.90;;;19.30;90.60;;;;;;5132270;27;20514;-82
2021/03/26 13:27:16;;;;;;;4.27;3.30;;;19.40;88.30;;;;;;5116887;27;20436;-81
2021/03/26 13:29:52;;;;;;;3.40;3.17;;;19.50;90.90;;;;;;5132558;27;20845;-81
2021/03/26 13:32:22;;;;;;;3.93;2.53;;;19.50;90.40;;;;;;5132415;27;21022;-81
2021/03/26 13:34:55;;;;;;;5.00;2.53;;;19.50;91.00;;;;;;5112220;27;20459;-81
2021/03/26 13:37:26;;;;;;;3.00;1.80;;;19.50;86.90;;;;;;5121328;27;21309;-82
2021/03/26 13:40:01;;;;;;;3.03;2.67;;;19.40;86.80;;;;;;5127599;27;20463;-82